createdAt,value
2018-10-01T00:01:52.582Z,5.90
2018-10-01T00:06:56.426Z,6.40
2018-10-01T00:12:00.514Z,5.33
2018-10-01T00:17:04.647Z,5.67
2018-10-01T00:22:13.862Z,5.67
2018-10-01T00:27:17.928Z,6.00
2018-10-01T00:32:21.780Z,6.33
2018-10-01T00:37:25.875Z,5.80
2018-10-01T00:42:29.682Z,5.73
2018-10-01T00:47:33.734Z,6.07
2018-10-01T00:52:37.868Z,6.55
2018-10-01T00:57:41.959Z,7.07
2018-10-01T01:02:46.124Z,7.73
2018-10-01T01:07:49.931Z,6.37
2018-10-01T01:12:54.030Z,7.37
2018-10-01T01:17:58.120Z,9.37
2018-10-01T01:23:01.960Z,7.83
2018-10-01T01:28:06.090Z,8.20
2018-10-01T01:33:09.915Z,7.60
2018-10-01T01:38:13.751Z,8.30
2018-10-01T01:43:17.592Z,7.60
2018-10-01T01:48:21.690Z,8.20
2018-10-01T01:53:25.775Z,8.73
2018-10-01T01:58:29.683Z,8.77
2018-10-01T02:03:33.556Z,9.23
2018-10-01T02:08:37.999Z,9.30
2018-10-01T02:13:41.866Z,10.07
2018-10-01T02:18:45.988Z,10.97
2018-10-01T02:23:50.061Z,9.87
2018-10-01T02:28:54.214Z,9.13
2018-10-01T02:33:58.295Z,9.73
2018-10-01T02:39:02.126Z,9.53
2018-10-01T02:44:06.158Z,9.40
2018-10-01T02:49:10.351Z,9.27
2018-10-01T02:54:19.860Z,9.20
2018-10-01T02:59:23.743Z,8.13
2018-10-01T03:04:28.288Z,8.50
2018-10-01T03:09:32.386Z,8.60
2018-10-01T03:14:36.496Z,8.80
2018-10-01T03:19:40.375Z,7.80
2018-10-01T03:24:44.507Z,7.40
2018-10-01T03:29:48.606Z,7.17
2018-10-01T03:34:53.239Z,8.27
2018-10-01T03:39:57.889Z,7.40
2018-10-01T03:45:01.926Z,6.93
2018-10-01T03:50:06.004Z,7.23
2018-10-01T03:55:09.909Z,7.85
2018-10-01T04:00:14.009Z,8.13
2018-10-01T04:05:18.094Z,8.30
2018-10-01T04:10:22.010Z,7.83
2018-10-01T04:15:25.826Z,7.80
2018-10-01T04:20:29.895Z,8.10
2018-10-01T04:25:33.715Z,8.60
2018-10-01T04:30:37.557Z,7.67
2018-10-01T04:35:41.602Z,8.63
2018-10-01T04:40:45.685Z,8.53
2018-10-01T04:45:49.788Z,7.67
2018-10-01T04:50:53.587Z,8.47
2018-10-01T04:55:57.647Z,8.53
2018-10-01T05:01:01.511Z,8.60
2018-10-01T05:06:05.445Z,7.57
2018-10-01T05:11:09.480Z,8.50
2018-10-01T05:16:13.526Z,8.77
2018-10-01T05:21:17.571Z,8.83
2018-10-01T05:26:21.680Z,8.30
2018-10-01T05:31:25.722Z,8.20
2018-10-01T05:36:29.547Z,8.63
2018-10-01T05:41:33.585Z,8.97
2018-10-01T05:46:37.429Z,8.80
2018-10-01T05:51:41.391Z,8.03
2018-10-01T05:56:45.204Z,8.30
2018-10-01T06:01:49.267Z,8.63
2018-10-01T06:06:53.161Z,10.13
2018-10-01T06:11:57.278Z,9.53
2018-10-01T06:17:01.335Z,10.20
2018-10-01T06:22:05.498Z,10.90
2018-10-01T06:27:09.373Z,10.07
2018-10-01T06:32:13.205Z,10.00
2018-10-01T06:37:17.323Z,9.20
2018-10-01T06:42:21.448Z,7.47
2018-10-01T06:47:25.536Z,7.33
2018-10-01T06:52:29.356Z,5.53
2018-10-01T06:57:33.317Z,5.87
2018-10-01T07:02:38.116Z,6.07
2018-10-01T07:07:42.194Z,6.50
2018-10-01T07:12:46.011Z,6.30
2018-10-01T07:17:50.041Z,6.13
2018-10-01T07:22:53.948Z,5.80
2018-10-01T07:27:58.020Z,5.30
2018-10-01T07:33:01.812Z,5.13
2018-10-01T07:38:05.863Z,6.60
2018-10-01T07:43:09.925Z,6.47
2018-10-01T07:48:13.753Z,6.80
2018-10-01T07:53:17.844Z,5.70
2018-10-01T07:58:21.910Z,6.80
2018-10-01T08:03:25.943Z,4.50
2018-10-01T08:08:29.988Z,3.87
2018-10-01T08:13:33.769Z,3.83
2018-10-01T08:18:37.963Z,3.80
2018-10-01T08:23:41.827Z,3.47
2018-10-01T08:28:45.609Z,3.40
2018-10-01T08:33:49.741Z,3.30
2018-10-01T08:38:53.852Z,3.20
2018-10-01T08:43:57.689Z,2.60
2018-10-01T08:49:05.947Z,2.60
2018-10-01T08:54:14.598Z,2.40
2018-10-01T08:59:18.667Z,2.53
2018-10-01T09:04:22.811Z,2.30
2018-10-01T09:09:26.870Z,1.90
2018-10-01T09:14:30.950Z,1.90
2018-10-01T09:19:35.010Z,1.70
2018-10-01T09:24:39.130Z,1.80
2018-10-01T09:29:42.982Z,1.60
2018-10-01T09:34:47.049Z,1.73
2018-10-01T09:39:51.010Z,1.70
2018-10-01T09:44:55.080Z,1.80
2018-10-01T09:49:58.894Z,2.00
2018-10-01T09:55:02.779Z,2.03
2018-10-01T10:00:07.041Z,1.90
2018-10-01T10:05:10.869Z,2.13
2018-10-01T10:10:15.034Z,1.50
2018-10-01T10:15:18.786Z,1.57
2018-10-01T10:20:22.724Z,1.60
2018-10-01T10:25:26.518Z,1.60
2018-10-01T10:30:30.402Z,1.17
2018-10-01T10:35:34.259Z,1.37
2018-10-01T10:40:38.094Z,1.40
2018-10-01T10:45:41.902Z,1.30
2018-10-01T10:50:46.007Z,1.77
2018-10-01T10:55:49.841Z,1.50
2018-10-01T11:00:53.706Z,1.43
2018-10-01T11:05:57.777Z,1.43
2018-10-01T11:11:01.601Z,1.40
2018-10-01T11:16:06.009Z,1.33
2018-10-01T11:21:10.132Z,1.40
2018-10-01T11:26:13.918Z,1.50
2018-10-01T11:31:18.010Z,1.60
2018-10-01T11:36:22.174Z,1.80
2018-10-01T11:41:26.008Z,1.80
2018-10-01T11:46:29.832Z,1.80
2018-10-01T11:51:33.959Z,1.60
2018-10-01T11:56:38.038Z,1.93
2018-10-01T12:01:41.938Z,2.27
2018-10-01T12:06:45.996Z,1.07
2018-10-01T12:11:50.086Z,0.70
2018-10-01T12:16:54.151Z,1.03
2018-10-01T12:21:58.059Z,0.90
2018-10-01T12:27:02.111Z,1.43
2018-10-01T12:32:06.256Z,1.30
2018-10-01T12:37:10.065Z,0.88
2018-10-01T12:42:13.941Z,1.43
2018-10-01T12:47:17.753Z,0.80
2018-10-01T12:52:22.250Z,0.80
2018-10-01T12:57:26.305Z,0.93
2018-10-01T13:02:30.342Z,1.20
2018-10-01T13:07:34.382Z,1.10
2018-10-01T13:12:38.325Z,0.70
2018-10-01T13:17:42.277Z,0.72
2018-10-01T13:22:46.319Z,0.93
2018-10-01T13:27:50.376Z,0.97
2018-10-01T13:32:54.433Z,1.00
2018-10-01T13:37:58.519Z,1.32
2018-10-01T13:43:02.567Z,1.30
2018-10-01T13:48:06.693Z,1.72
2018-10-01T13:53:10.742Z,1.87
2018-10-01T13:58:14.684Z,1.77
2018-10-01T14:03:18.419Z,2.17
2018-10-01T14:08:22.535Z,1.67
2018-10-01T14:13:26.698Z,2.00
2018-10-01T14:18:30.451Z,2.00
2018-10-01T14:23:34.774Z,1.47
2018-10-01T14:28:38.610Z,1.80
2018-10-01T14:33:42.707Z,1.80
2018-10-01T14:38:46.539Z,2.20
2018-10-01T14:43:50.651Z,2.10
2018-10-01T14:48:54.469Z,2.30
2018-10-01T14:53:58.586Z,2.37
2018-10-01T14:59:02.395Z,2.70
2018-10-01T15:04:06.233Z,2.40
2018-10-01T15:09:11.621Z,2.83
2018-10-01T15:14:15.538Z,3.20
2018-10-01T15:19:19.367Z,2.60
2018-10-01T15:24:23.214Z,2.90
2018-10-01T15:29:27.329Z,2.97
2018-10-01T15:34:31.482Z,3.20
2018-10-01T15:39:35.356Z,3.43
2018-10-01T15:44:39.162Z,3.10
2018-10-01T15:49:43.003Z,2.83
2018-10-01T15:54:47.090Z,2.47
2018-10-01T15:59:51.187Z,3.10
2018-10-01T16:04:55.242Z,3.33
2018-10-01T16:09:59.285Z,2.40
2018-10-01T16:15:03.596Z,3.80
2018-10-01T16:20:07.458Z,2.67
2018-10-01T16:25:11.274Z,2.40
2018-10-01T16:30:15.091Z,2.63
2018-10-01T16:35:18.901Z,2.40
2018-10-01T16:40:23.172Z,2.13
2018-10-01T16:45:27.220Z,2.10
2018-10-01T16:50:31.265Z,1.60
2018-10-01T16:55:35.081Z,1.90
2018-10-01T17:00:39.188Z,1.60
2018-10-01T17:05:43.284Z,1.50
2018-10-01T17:10:47.143Z,3.37
2018-10-01T17:15:52.280Z,2.13
2018-10-01T17:20:56.090Z,2.63
2018-10-01T17:26:00.168Z,2.70
2018-10-01T17:31:04.286Z,2.60
2018-10-01T17:36:08.400Z,2.33
2018-10-01T17:41:12.496Z,3.20
2018-10-01T17:46:16.583Z,2.90
2018-10-01T17:51:20.786Z,4.00
2018-10-01T17:56:25.010Z,2.90
2018-10-01T18:01:28.877Z,3.27
2018-10-01T18:06:32.945Z,2.40
2018-10-01T18:11:37.254Z,2.47
2018-10-01T18:16:41.074Z,2.63
2018-10-01T18:21:45.202Z,2.60
2018-10-01T18:26:49.057Z,1.70
2018-10-01T18:31:53.799Z,8.80
2018-10-01T18:36:57.820Z,8.43
2018-10-01T18:42:01.993Z,7.83
2018-10-01T18:47:06.086Z,5.80
2018-10-01T18:52:10.129Z,4.73
2018-10-01T18:57:13.962Z,7.47
2018-10-01T19:02:17.815Z,10.73
2018-10-01T19:07:21.962Z,6.27
2018-10-01T19:12:25.905Z,14.70
2018-10-01T19:17:29.871Z,4.53
2018-10-01T19:22:33.733Z,3.20
2018-10-01T19:27:37.730Z,3.37
2018-10-01T19:32:41.579Z,3.87
2018-10-01T19:37:45.414Z,3.57
2018-10-01T19:42:49.267Z,2.87
2018-10-01T19:47:53.213Z,3.37
2018-10-01T19:52:57.382Z,3.03
2018-10-01T19:58:01.184Z,3.27
2018-10-01T20:03:05.077Z,3.50
2018-10-01T20:08:08.884Z,4.30
2018-10-01T20:13:13.007Z,3.50
2018-10-01T20:18:16.838Z,3.70
2018-10-01T20:23:20.702Z,3.67
2018-10-01T20:28:24.638Z,4.00
2018-10-01T20:33:28.627Z,3.43
2018-10-01T20:38:32.726Z,2.80
2018-10-01T20:43:36.602Z,3.27
2018-10-01T20:48:40.705Z,2.70
2018-10-01T20:53:44.811Z,3.00
2018-10-01T20:58:48.844Z,3.87
2018-10-01T21:05:17.102Z,3.93
2018-10-01T21:10:21.246Z,4.00
2018-10-01T21:15:25.322Z,4.33
2018-10-01T21:20:29.193Z,4.10
2018-10-01T21:25:33.050Z,3.93
2018-10-01T21:30:37.176Z,3.50
2018-10-01T21:35:41.214Z,3.80
2018-10-01T21:41:48.624Z,3.60
2018-10-01T21:46:53.593Z,3.30
2018-10-01T21:51:57.671Z,3.10
2018-10-01T21:57:01.738Z,3.60
2018-10-01T22:02:05.902Z,3.55
2018-10-01T22:07:09.995Z,3.50
2018-10-01T22:12:13.895Z,4.03
2018-10-01T22:17:17.705Z,3.40
2018-10-01T22:22:22.233Z,3.55
2018-10-01T22:27:26.049Z,4.07
2018-10-01T22:32:30.108Z,3.80
2018-10-01T22:37:33.901Z,3.50
2018-10-01T22:42:38.008Z,3.30
2018-10-01T22:47:41.825Z,4.07
2018-10-01T22:52:45.886Z,3.67
2018-10-01T22:57:49.708Z,4.13
2018-10-01T23:02:53.559Z,3.20
2018-10-01T23:07:57.628Z,3.50
2018-10-01T23:13:01.445Z,3.17
2018-10-01T23:18:05.552Z,3.10
2018-10-01T23:23:09.751Z,3.30
2018-10-01T23:28:13.565Z,3.63
2018-10-01T23:33:17.770Z,2.60
2018-10-01T23:38:21.707Z,2.50
2018-10-01T23:43:25.684Z,2.50
2018-10-01T23:48:29.740Z,2.77
2018-10-01T23:53:33.557Z,2.40
2018-10-01T23:58:37.913Z,2.57
